Stations météo

réclame
Mon MeteoGroup
Lus-La-Croix-Haute, France (7587): Température de l'air & dewpoint: 17.09.2017 21:00:00 - 23.09.2017 21:00:00 (CEST)Lus-La-Croix-Haute, France (7587): Vitesse du vent & gusts: 17.09.2017 21:00:00 - 23.09.2017 21:00:00 (CEST)Lus-La-Croix-Haute, France (7587): Direction du vent: 17.09.2017 21:00:00 - 23.09.2017 21:00:00 (CEST)Lus-La-Croix-Haute, France (7587): Quantités de précipitations: 17.09.2017 21:00:00 - 23.09.2017 21:00:00 (CEST)
Date & Time tt [°C] td [°C] ff [km/h] ff [knt] fx [km/h] fx [knt] dd rr [mm]
23.09.2017 21:00:00 11,1 8,1 2 1 8 4 E 0,0
23.09.2017 20:00:00 12,9 8,6 2 1 24 13 SSE -
23.09.2017 19:00:00 15,1 8,8 13 7 28 15 NW 0,0
23.09.2017 18:00:00 17,8 9,4 15 8 34 18 WNW 0,0
23.09.2017 17:00:00 19,2 7,3 18 10 29 16 WNW 0,0
23.09.2017 16:00:00 20,2 8,8 16 9 28 15 WNW 0,0
23.09.2017 15:00:00 20,2 7,9 13 7 24 13 NW 0,0
23.09.2017 14:00:00 19,8 5,4 8 4 16 9 SW -
23.09.2017 13:00:00 18,2 7,6 4 2 15 8 SW 0,0
23.09.2017 12:00:00 15,6 8,8 4 2 9 5 S 0,0
23.09.2017 11:00:00 10,6 7,7 4 2 8 4 WNW 0,0
23.09.2017 10:00:00 8,3 8,0 2 1 5 3 WSW 0,0
23.09.2017 09:00:00 5,5 5,4 2 1 4 2 NW 0,0
23.09.2017 08:00:00 3,9 3,6 2 1 8 4 E -
23.09.2017 07:00:00 4,5 4,2 4 2 5 3 N 0,0
23.09.2017 06:00:00 4,4 4,0 2 1 4 2 E 0,0
23.09.2017 05:00:00 4,8 4,1 2 1 5 3 NE 0,0
23.09.2017 04:00:00 5,7 5,0 2 1 5 3 N 0,0
23.09.2017 03:00:00 6,1 5,4 2 1 4 2 ESE 0,0
23.09.2017 02:00:00 6,7 5,5 4 2 8 4 SE -
23.09.2017 01:00:00 7,4 5,4 4 2 5 3 SSE 0,0
23.09.2017 00:00:00 8,2 5,5 4 2 8 4 SSE 0,0
22.09.2017 23:00:00 8,9 5,3 4 2 9 5 E 0,0
22.09.2017 22:00:00 9,8 5,4 4 2 8 4 ENE 0,0
22.09.2017 21:00:00 11,1 6,0 4 2 9 5 E 0,0
22.09.2017 20:00:00 13,1 5,5 4 2 15 8 NE -
22.09.2017 19:00:00 15,2 5,1 9 5 31 17 NNW 0,0
22.09.2017 18:00:00 16,9 7,5 16 9 39 21 NW 0,0
22.09.2017 17:00:00 18,6 8,0 21 11 35 19 NW 0,0
22.09.2017 16:00:00 20,6 1,9 8 4 28 15 ENE 0,0
22.09.2017 15:00:00 20,6 5,0 13 7 31 17 NW 0,0
22.09.2017 14:00:00 20,0 3,2 11 6 29 16 NNW -
22.09.2017 13:00:00 18,7 5,9 15 8 37 20 WNW 0,0
22.09.2017 12:00:00 17,5 5,4 18 10 34 18 WNW 0,0
22.09.2017 11:00:00 14,3 8,3 4 2 9 5 S 0,0
22.09.2017 10:00:00 8,3 7,7 2 1 5 3 WSW 0,0
22.09.2017 09:00:00 4,7 4,6 0 0 4 2 SSW 0,0
22.09.2017 08:00:00 3,3 3,2 2 1 4 2 N -
22.09.2017 07:00:00 3,0 2,7 2 1 4 2 SSE 0,0
22.09.2017 06:00:00 3,4 3,1 2 1 5 3 NW 0,0
22.09.2017 05:00:00 3,5 3,2 0 0 5 3 ESE 0,0
22.09.2017 04:00:00 3,9 3,5 2 1 4 2 NW 0,0
22.09.2017 03:00:00 4,2 3,6 2 1 4 2 E 0,0
22.09.2017 02:00:00 4,9 4,2 2 1 4 2 E -
22.09.2017 01:00:00 5,7 4,5 2 1 4 2 SSE 0,0
22.09.2017 00:00:00 6,4 4,6 4 2 5 3 SE 0,0
21.09.2017 23:00:00 7,7 5,0 4 2 8 4 N 0,0
21.09.2017 22:00:00 8,6 5,2 2 1 8 4 SSE 0,0
21.09.2017 21:00:00 9,9 5,3 4 2 9 5 SSE 0,0
21.09.2017 20:00:00 12,3 5,2 2 1 18 10 N -
21.09.2017 19:00:00 16,4 4,1 11 6 22 12 NNW 0,0
21.09.2017 18:00:00 20,0 4,9 9 5 16 9 WNW 0,0
21.09.2017 17:00:00 22,0 3,1 5 3 16 9 WSW 0,0
21.09.2017 16:00:00 21,4 2,1 8 4 18 10 SSE 0,0
21.09.2017 15:00:00 20,4 0,2 5 3 16 9 S 0,0
21.09.2017 14:00:00 19,4 2,3 8 4 18 10 S -
21.09.2017 13:00:00 18,2 3,6 9 5 22 12 S 0,0
21.09.2017 12:00:00 16,2 3,3 9 5 18 10 S 0,0
21.09.2017 11:00:00 11,3 5,4 2 1 9 5 S 0,0
21.09.2017 10:00:00 6,1 4,4 4 2 8 4 SSW 0,0
21.09.2017 09:00:00 2,3 2,2 2 1 5 3 NE 0,0
21.09.2017 08:00:00 0,8 0,5 0 0 4 2 NNW -
21.09.2017 07:00:00 1,2 0,8 2 1 4 2 SSE 0,0
21.09.2017 06:00:00 1,7 1,1 4 2 5 3 SSE 0,0
21.09.2017 05:00:00 2,2 1,6 2 1 4 2 SSW 0,0
21.09.2017 04:00:00 2,6 1,9 2 1 5 3 W 0,0
21.09.2017 03:00:00 3,3 2,4 2 1 9 5 ESE 0,0
21.09.2017 02:00:00 4,2 3,0 4 2 8 4 NNE -
21.09.2017 01:00:00 5,1 2,8 4 2 11 6 N 0,0
21.09.2017 00:00:00 5,8 3,0 2 1 13 7 NE 0,0
20.09.2017 23:00:00 6,3 3,3 8 4 13 7 NNE 0,0
20.09.2017 22:00:00 6,8 3,6 8 4 15 8 NNE 0,0
20.09.2017 21:00:00 7,0 3,8 8 4 18 10 NNE 0,0
20.09.2017 20:00:00 7,6 4,0 9 5 24 13 NNW -
20.09.2017 19:00:00 9,8 4,2 13 7 29 16 NNW 0,0
20.09.2017 18:00:00 12,7 4,6 9 5 34 18 NNW 0,0
20.09.2017 17:00:00 13,2 4,9 16 9 46 25 NNW 0,0
20.09.2017 16:00:00 13,4 4,3 16 9 39 21 NNW 0,0
20.09.2017 15:00:00 12,4 4,1 16 9 37 20 NNW 0,0
20.09.2017 14:00:00 12,1 3,6 13 7 34 18 NNW -
20.09.2017 13:00:00 11,2 3,0 9 5 28 15 N 0,0
20.09.2017 12:00:00 10,5 4,0 9 5 46 25 N 0,0
20.09.2017 11:00:00 9,1 2,9 9 5 50 27 N 0,0
20.09.2017 10:00:00 6,9 2,8 13 7 29 16 N 0,0
20.09.2017 09:00:00 6,1 2,4 11 6 29 16 NNW 0,0
20.09.2017 08:00:00 5,7 2,3 8 4 22 12 NE -
20.09.2017 07:00:00 5,9 2,2 5 3 28 15 NE 0,0
20.09.2017 06:00:00 5,8 2,4 5 3 22 12 N 0,0
20.09.2017 05:00:00 6,0 2,3 8 4 24 13 NE 0,0
20.09.2017 04:00:00 6,2 2,5 9 5 39 21 NNE 0,0
20.09.2017 03:00:00 6,2 2,3 11 6 39 21 N 0,0
20.09.2017 02:00:00 6,5 2,0 9 5 42 23 NNE -
20.09.2017 01:00:00 6,6 2,1 13 7 63 34 N 0,0
20.09.2017 00:00:00 6,7 1,8 24 13 59 32 N 0,0
19.09.2017 23:00:00 6,8 1,9 18 10 59 32 N 0,0
19.09.2017 22:00:00 6,5 2,2 13 7 68 37 N 0,0
19.09.2017 21:00:00 6,6 2,1 16 9 74 40 N 0,0
19.09.2017 20:00:00 6,6 2,5 18 10 68 37 N -
19.09.2017 19:00:00 6,5 2,6 22 12 57 31 NNW 0,0
19.09.2017 18:00:00 6,3 3,1 21 11 67 36 NNW 0,4
19.09.2017 17:00:00 6,7 3,3 22 12 50 27 NNW 0,0
19.09.2017 16:00:00 7,1 5,2 22 12 50 27 NNW 2,0
19.09.2017 15:00:00 5,2 3,0 26 14 70 38 NNW 2,0
19.09.2017 14:00:00 8,4 3,2 22 12 67 36 NNW -
19.09.2017 13:00:00 8,3 3,1 24 13 57 31 NNW 0,0
19.09.2017 12:00:00 7,7 2,6 22 12 59 32 NNW 0,0
19.09.2017 11:00:00 6,8 3,4 21 11 44 24 NW 0,0
19.09.2017 10:00:00 6,2 3,5 22 12 44 24 NW 0,0
19.09.2017 09:00:00 6,6 1,5 13 7 44 24 NNW 0,0
19.09.2017 08:00:00 6,2 1,3 9 5 35 19 N -
19.09.2017 07:00:00 6,1 1,0 18 10 59 32 N 0,0
19.09.2017 06:00:00 6,1 1,8 9 5 37 20 NW 0,0
19.09.2017 05:00:00 6,2 1,5 13 7 35 19 NNW 0,0
19.09.2017 04:00:00 5,8 1,3 9 5 39 21 NW 0,0
19.09.2017 03:00:00 7,0 1,3 15 8 54 29 N 0,0
19.09.2017 02:00:00 7,0 2,5 18 10 41 22 NNW -
19.09.2017 01:00:00 6,8 2,5 11 6 35 19 NW 0,0
19.09.2017 00:00:00 6,2 2,1 13 7 28 15 NW 0,0
18.09.2017 23:00:00 7,3 2,2 13 7 44 24 NNW 0,0
18.09.2017 22:00:00 7,1 3,2 16 9 34 18 NW 0,0
18.09.2017 21:00:00 6,9 2,8 15 8 29 16 NW 0,0
18.09.2017 20:00:00 8,1 3,0 16 9 42 23 NNW -
18.09.2017 19:00:00 9,0 3,2 15 8 44 24 NNW 0,0
18.09.2017 18:00:00 11,2 4,4 16 9 37 20 NW 0,0
18.09.2017 17:00:00 12,6 6,4 15 8 42 23 NW 0,0
18.09.2017 16:00:00 10,8 5,5 15 8 26 14 NW 0,4
18.09.2017 15:00:00 9,1 6,4 15 8 37 20 NW 0,0
18.09.2017 14:00:00 9,8 5,0 18 10 29 16 NW -
18.09.2017 13:00:00 11,4 4,1 4 2 15 8 SW 0,0
18.09.2017 12:00:00 10,2 5,4 4 2 8 4 WNW 0,0
18.09.2017 11:00:00 7,7 6,5 2 1 8 4 SSE 0,0
18.09.2017 10:00:00 5,9 5,8 4 2 8 4 S 0,0
18.09.2017 09:00:00 4,7 4,7 2 1 9 5 NW 0,0
18.09.2017 08:00:00 3,9 3,6 4 2 8 4 NW -
18.09.2017 07:00:00 3,8 3,5 2 1 8 4 NNE 0,0
18.09.2017 06:00:00 3,8 3,5 2 1 8 4 NE 0,0
18.09.2017 05:00:00 4,2 3,9 2 1 13 7 W 0,0
18.09.2017 04:00:00 4,4 4,0 5 3 11 6 SSE 0,0
18.09.2017 03:00:00 5,4 5,1 2 1 5 3 NNE 0,0
18.09.2017 02:00:00 5,8 5,4 2 1 5 3 NNE -
18.09.2017 01:00:00 6,2 5,6 4 2 5 3 ENE 0,2
18.09.2017 00:00:00 6,5 5,9 2 1 4 2 N 0,0
17.09.2017 23:00:00 6,6 5,7 2 1 8 4 WNW 0,0
17.09.2017 22:00:00 7,0 5,9 2 1 8 4 E 1,0
17.09.2017 21:00:00 7,6 4,5 4 2 9 5 W 0,0

tt = Température de l'air
td = dewpoint
ff = Vitesse du vent
fx = gusts
dd = Direction du vent
rr = Quantités de précipitations

stations d'obs. à proximité